createdAt,value
2024-02-10T00:01:25.821Z,97170.33
2024-02-10T00:03:52.634Z,97173.33
2024-02-10T00:06:19.266Z,97167.52
2024-02-10T00:08:46.174Z,97170.38
2024-02-10T00:11:13.660Z,97166.08
2024-02-10T00:13:43.246Z,97165.79
2024-02-10T00:16:11.799Z,97165.63
2024-02-10T00:18:38.989Z,97162.20
2024-02-10T00:21:06.026Z,97162.38
2024-02-10T00:23:32.516Z,97166.17
2024-02-10T00:25:59.224Z,97156.48
2024-02-10T00:28:26.550Z,97159.19
2024-02-10T00:30:56.122Z,97154.34
2024-02-10T00:33:22.944Z,97153.05
2024-02-10T00:35:49.639Z,97155.91
2024-02-10T00:38:22.239Z,97158.71
2024-02-10T00:40:50.081Z,97155.97
2024-02-10T00:43:16.899Z,97162.44
2024-02-10T00:45:48.028Z,97165.15
2024-02-10T00:48:15.072Z,97165.73
2024-02-10T00:50:43.428Z,97165.19
2024-02-10T00:53:10.518Z,97163.76
2024-02-10T00:55:37.231Z,97164.15
2024-02-10T00:58:07.341Z,97163.66
2024-02-10T01:00:35.586Z,97157.59
2024-02-10T01:03:03.627Z,97150.23
2024-02-10T01:05:31.327Z,97150.59
2024-02-10T01:08:01.500Z,97148.39
2024-02-10T01:10:31.109Z,97144.73
2024-02-10T01:12:58.745Z,97136.14
2024-02-10T01:15:25.554Z,97137.52
2024-02-10T01:17:52.109Z,97135.17
2024-02-10T01:20:20.238Z,97135.85
2024-02-10T01:22:46.912Z,97137.48
2024-02-10T01:25:14.490Z,97139.11
2024-02-10T01:27:45.827Z,97142.05
2024-02-10T01:30:14.469Z,97142.46
2024-02-10T01:32:43.528Z,97141.34
2024-02-10T01:35:10.366Z,97135.64
2024-02-10T01:37:40.147Z,97135.17
2024-02-10T01:40:12.366Z,97133.52
2024-02-10T01:42:40.077Z,97133.33
2024-02-10T01:45:09.955Z,97125.55
2024-02-10T01:47:38.118Z,97122.92
2024-02-10T01:50:09.285Z,97122.95
2024-02-10T01:52:39.786Z,97117.81
2024-02-10T01:55:08.103Z,97116.52
2024-02-10T01:57:35.057Z,97115.86
2024-02-10T02:00:07.032Z,97110.90
2024-02-10T02:02:34.982Z,97108.19
2024-02-10T02:05:03.995Z,97101.82
2024-02-10T02:07:31.982Z,97100.77
2024-02-10T02:10:00.328Z,97094.30
2024-02-10T02:12:27.787Z,97089.06
2024-02-10T02:14:59.002Z,97083.00
2024-02-10T02:17:26.561Z,97071.73
2024-02-10T02:19:53.555Z,97067.80
2024-02-10T02:22:20.723Z,97073.10
2024-02-10T02:24:48.624Z,97075.09
2024-02-10T02:27:16.282Z,97068.87
2024-02-10T02:29:43.239Z,97071.69
2024-02-10T02:32:11.656Z,97069.54
2024-02-10T02:34:39.146Z,97065.93
2024-02-10T02:37:08.321Z,97063.45
2024-02-10T02:39:37.333Z,97061.08
2024-02-10T02:42:06.689Z,97062.75
2024-02-10T02:44:33.860Z,97060.04
2024-02-10T02:47:06.979Z,97056.12
2024-02-10T02:49:34.624Z,97043.76
2024-02-10T02:52:01.496Z,97043.55
2024-02-10T02:54:28.009Z,97042.32
2024-02-10T02:57:01.649Z,97035.27
2024-02-10T02:59:28.716Z,97034.06
2024-02-10T03:01:56.430Z,97026.16
2024-02-10T03:04:23.780Z,97023.15
2024-02-10T03:06:52.281Z,97020.71
2024-02-10T03:09:19.600Z,97015.14
2024-02-10T03:11:46.167Z,97017.84
2024-02-10T03:14:12.791Z,97022.29
2024-02-10T03:16:40.764Z,97018.17
2024-02-10T03:19:08.316Z,97012.67
2024-02-10T03:21:37.133Z,97012.17
2024-02-10T03:24:04.895Z,97021.13
2024-02-10T03:26:32.985Z,97019.30
2024-02-10T03:29:04.244Z,97018.73
2024-02-10T03:31:31.310Z,97017.23
2024-02-10T03:33:58.164Z,97013.55
2024-02-10T03:36:28.586Z,97013.52
2024-02-10T03:38:55.940Z,97011.89
2024-02-10T03:41:22.999Z,97007.77
2024-02-10T03:43:49.932Z,97009.31
2024-02-10T03:46:18.463Z,97004.13
2024-02-10T03:48:47.878Z,97000.65
2024-02-10T03:51:14.533Z,97000.72
2024-02-10T03:53:41.347Z,97001.27
2024-02-10T03:56:11.903Z,97002.77
2024-02-10T03:58:42.851Z,96993.15
2024-02-10T04:01:15.322Z,96993.20
2024-02-10T04:03:49.149Z,96989.98
2024-02-10T04:06:20.494Z,96986.20
2024-02-10T04:08:48.451Z,96984.66
2024-02-10T04:11:17.990Z,96986.47
2024-02-10T04:13:45.451Z,96986.65
2024-02-10T04:16:14.164Z,96983.58
2024-02-10T04:18:42.486Z,96986.19
2024-02-10T04:21:10.506Z,96986.56
2024-02-10T04:23:41.330Z,96990.77
2024-02-10T04:26:08.363Z,96990.24
2024-02-10T04:28:35.235Z,96990.13
2024-02-10T04:31:01.984Z,96992.33
2024-02-10T04:33:29.079Z,96987.98
2024-02-10T04:35:55.910Z,96988.02
2024-02-10T04:38:23.426Z,96987.80
2024-02-10T04:40:52.099Z,96995.54
2024-02-10T04:43:19.068Z,96995.06
2024-02-10T04:45:49.733Z,97000.19
2024-02-10T04:48:19.973Z,97004.00
2024-02-10T04:50:46.943Z,97003.45
2024-02-10T04:53:16.354Z,97006.64
2024-02-10T04:55:43.261Z,97009.51
2024-02-10T04:58:10.056Z,97004.91
2024-02-10T05:00:36.698Z,97014.99
2024-02-10T05:03:04.420Z,97018.93
2024-02-10T05:05:31.166Z,97014.39
2024-02-10T05:07:58.593Z,97018.91
2024-02-10T05:10:25.631Z,97019.91
2024-02-10T05:12:57.151Z,97019.91
2024-02-10T05:15:26.617Z,97019.34
2024-02-10T05:17:54.597Z,97020.57
2024-02-10T05:20:24.376Z,97015.45
2024-02-10T05:23:02.292Z,97015.26
2024-02-10T05:25:36.974Z,97007.77
2024-02-10T05:28:04.845Z,97009.42
2024-02-10T05:30:31.362Z,97003.23
2024-02-10T05:33:08.775Z,97004.82
2024-02-10T05:35:35.486Z,97004.80
2024-02-10T05:38:04.763Z,97002.31
2024-02-10T05:40:31.853Z,97004.95
2024-02-10T05:43:00.791Z,97004.81
2024-02-10T05:45:29.327Z,97005.77
2024-02-10T05:47:56.068Z,97005.19
2024-02-10T05:50:25.714Z,97010.63
2024-02-10T05:52:59.012Z,97007.28
2024-02-10T05:55:27.650Z,97003.66
2024-02-10T05:58:08.417Z,96999.04
2024-02-10T06:00:39.929Z,96999.05
2024-02-10T06:03:06.667Z,97005.54
2024-02-10T06:05:33.414Z,97009.52
2024-02-10T06:08:02.321Z,97013.73
2024-02-10T06:10:29.114Z,97012.48
2024-02-10T06:12:55.891Z,97016.41
2024-02-10T06:15:25.145Z,97018.19
2024-02-10T06:17:56.342Z,97015.89
2024-02-10T06:20:24.804Z,97017.02
2024-02-10T06:22:54.859Z,97016.34
2024-02-10T06:25:29.198Z,97021.80
2024-02-10T06:27:58.312Z,97022.23
2024-02-10T06:30:29.009Z,97019.75
2024-02-10T06:32:57.310Z,97014.46
2024-02-10T06:35:24.859Z,97012.77
2024-02-10T06:37:51.616Z,97017.09
2024-02-10T06:40:19.721Z,97016.81
2024-02-10T06:42:50.294Z,97021.02
2024-02-10T06:45:17.539Z,97024.19
2024-02-10T06:47:46.546Z,97032.54
2024-02-10T06:50:30.038Z,97033.27
2024-02-10T06:53:00.906Z,97042.38
2024-02-10T06:55:28.711Z,97049.02
2024-02-10T06:57:59.733Z,97046.98
2024-02-10T07:00:28.834Z,97044.71
2024-02-10T07:02:58.750Z,97042.14
2024-02-10T07:05:26.383Z,97043.80
2024-02-10T07:07:54.116Z,97039.98
2024-02-10T07:10:23.302Z,97040.96
2024-02-10T07:12:51.404Z,97039.45
2024-02-10T07:15:24.169Z,97047.20
2024-02-10T07:17:53.754Z,97045.59
2024-02-10T07:20:24.882Z,97039.73
2024-02-10T07:22:57.590Z,97039.59
2024-02-10T07:25:26.291Z,97036.59
2024-02-10T07:27:53.086Z,97024.09
2024-02-10T07:30:20.739Z,97028.50
2024-02-10T07:32:51.706Z,97031.11
2024-02-10T07:35:23.614Z,97032.48
2024-02-10T07:37:53.447Z,97030.34
2024-02-10T07:40:20.905Z,97035.30
2024-02-10T07:42:47.822Z,97034.08
2024-02-10T07:45:14.472Z,97036.84
2024-02-10T07:47:41.049Z,97038.27
2024-02-10T07:50:08.213Z,97035.12
2024-02-10T07:52:34.799Z,97035.32
2024-02-10T07:55:02.044Z,97033.55
2024-02-10T07:57:30.617Z,97032.45
2024-02-10T07:59:57.907Z,97030.02
2024-02-10T08:02:28.543Z,97026.33
2024-02-10T08:04:58.317Z,97026.05
2024-02-10T08:07:31.554Z,97025.12
2024-02-10T08:09:59.698Z,97029.98
2024-02-10T08:12:27.878Z,97035.02
2024-02-10T08:14:58.255Z,97033.70
2024-02-10T08:17:27.430Z,97028.23
2024-02-10T08:20:01.459Z,97033.05
2024-02-10T08:22:32.408Z,97030.50
2024-02-10T08:25:01.088Z,97025.80
2024-02-10T08:27:29.806Z,97026.16
2024-02-10T08:29:57.716Z,97027.68
2024-02-10T08:32:25.909Z,97021.48
2024-02-10T08:34:52.895Z,97021.10
2024-02-10T08:37:20.790Z,97018.42
2024-02-10T08:39:47.918Z,97021.79
2024-02-10T08:42:15.688Z,97021.73
2024-02-10T08:44:45.228Z,97022.07
2024-02-10T08:47:11.722Z,97014.83
2024-02-10T08:49:39.594Z,96998.60
2024-02-10T08:52:15.491Z,96995.56
2024-02-10T08:54:44.456Z,96982.54
2024-02-10T08:57:11.623Z,96977.79
2024-02-10T08:59:43.182Z,96965.17
2024-02-10T09:02:11.397Z,96958.34
2024-02-10T09:04:40.458Z,96956.94
2024-02-10T09:07:08.336Z,96963.09
2024-02-10T09:09:36.025Z,96968.80
2024-02-10T09:12:03.169Z,96974.80
2024-02-10T09:14:31.038Z,96977.16
2024-02-10T09:16:58.231Z,96976.73
2024-02-10T09:19:25.021Z,96970.89
2024-02-10T09:21:56.947Z,96973.70
2024-02-10T09:24:25.236Z,96978.95
2024-02-10T09:26:53.464Z,96981.81
2024-02-10T09:29:20.354Z,96982.13
2024-02-10T09:31:48.063Z,96990.13
2024-02-10T09:34:14.704Z,96989.38
2024-02-10T09:36:44.109Z,96989.61
2024-02-10T09:39:14.022Z,96986.61
2024-02-10T09:41:45.059Z,96987.54
2024-02-10T09:44:12.817Z,96984.83
2024-02-10T09:46:40.451Z,96980.89
2024-02-10T09:49:09.475Z,96983.52
2024-02-10T09:51:38.965Z,96983.54
2024-02-10T09:54:07.040Z,96987.52
2024-02-10T09:56:40.001Z,96994.77
2024-02-10T09:59:13.337Z,97000.54
2024-02-10T10:01:41.021Z,97007.20
2024-02-10T10:04:11.507Z,97015.44
2024-02-10T10:06:44.378Z,97020.77
2024-02-10T10:09:12.477Z,97017.92
2024-02-10T10:11:41.126Z,97016.07
2024-02-10T10:14:08.857Z,97016.59
2024-02-10T10:16:36.314Z,97018.37
2024-02-10T10:19:03.422Z,97015.88
2024-02-10T10:21:31.871Z,97011.16
2024-02-10T10:23:59.155Z,97006.16
2024-02-10T10:26:26.809Z,97013.07
2024-02-10T10:28:53.640Z,97015.01
2024-02-10T10:31:23.368Z,97015.27
2024-02-10T10:33:51.963Z,97013.24
2024-02-10T10:36:19.021Z,97006.92
2024-02-10T10:38:46.214Z,96999.10
2024-02-10T10:41:23.979Z,96997.45
2024-02-10T10:43:52.577Z,96993.81
2024-02-10T10:46:21.031Z,96988.55
2024-02-10T10:48:49.633Z,96984.14
2024-02-10T10:51:18.774Z,96974.42
2024-02-10T10:53:49.616Z,96972.06
2024-02-10T10:56:21.005Z,96966.70
2024-02-10T10:59:00.651Z,96962.15
2024-02-10T11:01:29.426Z,96955.78
2024-02-10T11:04:00.968Z,96950.79
2024-02-10T11:06:29.591Z,96946.77
2024-02-10T11:08:56.676Z,96941.02
2024-02-10T11:11:23.203Z,96932.14
2024-02-10T11:13:49.865Z,96924.87
2024-02-10T11:16:17.137Z,96917.14
2024-02-10T11:18:46.446Z,96910.89
2024-02-10T11:21:20.288Z,96899.71
2024-02-10T11:24:06.923Z,96892.45
2024-02-10T11:26:34.940Z,96883.50
2024-02-10T11:29:03.563Z,96875.40
2024-02-10T11:31:30.259Z,96869.82
2024-02-10T11:34:06.327Z,96858.81
2024-02-10T11:36:36.164Z,96858.23
2024-02-10T11:39:04.435Z,96850.02
2024-02-10T11:41:37.602Z,96845.17
2024-02-10T11:44:07.040Z,96840.23
2024-02-10T11:46:33.707Z,96835.60
2024-02-10T11:49:02.101Z,96830.03
2024-02-10T11:51:30.277Z,96826.95
2024-02-10T11:53:58.405Z,96823.23
2024-02-10T11:56:29.803Z,96816.11
2024-02-10T11:58:56.606Z,96809.89
2024-02-10T12:01:24.241Z,96807.83
2024-02-10T12:03:51.967Z,96804.69
2024-02-10T12:06:22.193Z,96799.89
2024-02-10T12:08:51.719Z,96801.43
2024-02-10T12:11:18.445Z,96797.52
2024-02-10T12:13:47.165Z,96787.59
2024-02-10T12:16:17.160Z,96784.45
2024-02-10T12:18:48.206Z,96781.20
2024-02-10T12:21:20.742Z,96788.91
2024-02-10T12:23:48.759Z,96793.10
2024-02-10T12:26:16.834Z,96794.81
2024-02-10T12:28:43.632Z,96788.42
2024-02-10T12:31:10.576Z,96785.17
2024-02-10T12:33:37.137Z,96785.32
2024-02-10T12:36:03.988Z,96785.15
2024-02-10T12:38:31.571Z,96788.27
2024-02-10T12:40:58.244Z,96791.65
2024-02-10T12:43:26.088Z,96789.16
2024-02-10T12:45:53.390Z,96784.79
2024-02-10T12:48:21.124Z,96789.79
2024-02-10T12:50:51.976Z,96788.02
2024-02-10T12:53:19.391Z,96786.08
2024-02-10T12:55:47.484Z,96790.89
2024-02-10T12:58:14.486Z,96796.48
2024-02-10T13:00:41.759Z,96800.86
2024-02-10T13:03:09.517Z,96806.72
2024-02-10T13:05:36.261Z,96808.25
2024-02-10T13:08:03.139Z,96805.63
2024-02-10T13:10:30.364Z,96809.73
2024-02-10T13:13:02.941Z,96805.60
2024-02-10T13:15:30.097Z,96807.87
2024-02-10T13:17:58.679Z,96807.36
2024-02-10T13:20:27.433Z,96800.85
2024-02-10T13:22:55.974Z,96792.20
2024-02-10T13:25:23.392Z,96789.66
2024-02-10T13:27:53.497Z,96790.67
2024-02-10T13:30:21.611Z,96785.73
2024-02-10T13:32:48.263Z,96779.77
2024-02-10T13:35:19.702Z,96773.30
2024-02-10T13:38:07.508Z,96766.99
2024-02-10T13:40:56.111Z,96759.36
2024-02-10T13:43:42.890Z,96748.45
2024-02-10T13:46:28.557Z,96733.23
2024-02-10T13:49:13.738Z,96735.41
2024-02-10T13:51:59.036Z,96735.30
2024-02-10T13:54:44.251Z,96738.29
2024-02-10T13:57:29.689Z,96738.37
2024-02-10T13:59:56.166Z,96735.42
2024-02-10T14:02:22.801Z,96732.86
2024-02-10T14:04:50.242Z,96738.33
2024-02-10T14:07:32.690Z,96735.38
2024-02-10T14:10:16.391Z,96723.85
2024-02-10T14:12:51.841Z,96722.09
2024-02-10T14:15:21.846Z,96722.63
2024-02-10T14:17:51.652Z,96719.58
2024-02-10T14:20:23.585Z,96715.40
2024-02-10T14:22:56.497Z,96712.32
2024-02-10T14:25:34.025Z,96708.41
2024-02-10T14:28:16.650Z,96702.42
2024-02-10T14:30:48.909Z,96701.33
2024-02-10T14:33:17.475Z,96694.58
2024-02-10T14:36:15.484Z,96695.08
2024-02-10T14:38:50.038Z,96689.89
2024-02-10T14:41:16.568Z,96683.88
2024-02-10T14:43:45.134Z,96678.45
2024-02-10T14:46:14.628Z,96678.55
2024-02-10T14:48:42.704Z,96683.11
2024-02-10T14:51:13.325Z,96684.79
2024-02-10T14:53:40.956Z,96683.88
2024-02-10T14:56:13.933Z,96692.36
2024-02-10T14:58:44.769Z,96691.23
2024-02-10T15:01:12.309Z,96692.74
2024-02-10T15:03:39.917Z,96689.81
2024-02-10T15:06:20.805Z,96687.78
2024-02-10T15:08:54.588Z,96676.20
2024-02-10T15:11:23.001Z,96675.77
2024-02-10T15:13:49.551Z,96673.84
2024-02-10T15:16:23.321Z,96672.59
2024-02-10T15:18:53.579Z,96670.47
2024-02-10T15:21:21.533Z,96669.75
2024-02-10T15:23:49.437Z,96673.54
2024-02-10T15:26:18.023Z,96673.20
2024-02-10T15:28:46.978Z,96666.67
2024-02-10T15:31:19.953Z,96660.67
2024-02-10T15:33:58.239Z,96653.06
2024-02-10T15:36:31.999Z,96648.55
2024-02-10T15:39:02.437Z,96639.08
2024-02-10T15:41:29.524Z,96637.77
2024-02-10T15:43:56.834Z,96638.77
2024-02-10T15:46:24.127Z,96639.48
2024-02-10T15:48:55.369Z,96635.77
2024-02-10T15:51:22.934Z,96635.10
2024-02-10T15:53:49.805Z,96636.86
2024-02-10T15:56:16.386Z,96635.35
2024-02-10T15:58:44.630Z,96639.98
2024-02-10T16:01:21.108Z,96644.81
2024-02-10T16:03:47.691Z,96644.27
2024-02-10T16:06:14.443Z,96645.46
2024-02-10T16:08:45.751Z,96646.77
2024-02-10T16:11:13.308Z,96647.50
2024-02-10T16:13:41.061Z,96646.45
2024-02-10T16:16:09.092Z,96646.13
2024-02-10T16:18:36.507Z,96642.10
2024-02-10T16:21:03.102Z,96644.39
2024-02-10T16:23:29.601Z,96641.63
2024-02-10T16:25:58.352Z,96645.98
2024-02-10T16:28:25.298Z,96644.09
2024-02-10T16:30:51.851Z,96647.07
2024-02-10T16:33:18.447Z,96636.95
2024-02-10T16:35:46.646Z,96635.85
2024-02-10T16:38:14.043Z,96630.65
2024-02-10T16:40:41.928Z,96637.23
2024-02-10T16:43:09.335Z,96642.45
2024-02-10T16:45:36.927Z,96650.09
2024-02-10T16:48:04.684Z,96650.44
2024-02-10T16:50:32.392Z,96649.98
2024-02-10T16:53:06.695Z,96649.09
2024-02-10T16:55:38.437Z,96650.46
2024-02-10T16:58:09.663Z,96652.95
2024-02-10T17:00:38.586Z,96653.59
2024-02-10T17:03:08.068Z,96657.52
2024-02-10T17:05:37.957Z,96662.80
2024-02-10T17:08:05.566Z,96665.85
2024-02-10T17:10:39.206Z,96665.34
2024-02-10T17:13:11.099Z,96664.23
2024-02-10T17:15:39.483Z,96660.27
2024-02-10T17:18:15.044Z,96663.88
2024-02-10T17:20:48.343Z,96665.34
2024-02-10T17:23:21.053Z,96677.91
2024-02-10T17:25:48.392Z,96678.83
2024-02-10T17:28:15.309Z,96675.44
2024-02-10T17:30:41.883Z,96676.07
2024-02-10T17:33:08.869Z,96675.95
2024-02-10T17:35:35.470Z,96684.46
2024-02-10T17:38:03.432Z,96682.58
2024-02-10T17:40:32.263Z,96682.99
2024-02-10T17:43:03.808Z,96686.73
2024-02-10T17:45:34.234Z,96694.63
2024-02-10T17:48:01.913Z,96703.69
2024-02-10T17:50:31.156Z,96705.35
2024-02-10T17:53:06.068Z,96704.40
2024-02-10T17:55:39.635Z,96703.33
2024-02-10T17:58:17.313Z,96703.20
2024-02-10T18:00:44.410Z,96707.56
2024-02-10T18:03:14.529Z,96707.92
2024-02-10T18:05:41.786Z,96708.64
2024-02-10T18:08:08.717Z,96706.13
2024-02-10T18:10:35.292Z,96701.39
2024-02-10T18:13:01.871Z,96699.54
2024-02-10T18:15:28.490Z,96694.73
2024-02-10T18:17:56.449Z,96701.68
2024-02-10T18:20:23.721Z,96711.27
2024-02-10T18:22:51.854Z,96715.33
2024-02-10T18:25:19.350Z,96721.96
2024-02-10T18:27:45.803Z,96728.88
2024-02-10T18:30:19.928Z,96740.63
2024-02-10T18:32:49.405Z,96750.08
2024-02-10T18:35:24.959Z,96755.83
2024-02-10T18:37:52.476Z,96753.73
2024-02-10T18:40:19.380Z,96759.39
2024-02-10T18:42:49.030Z,96759.09
2024-02-10T18:45:17.249Z,96754.59
2024-02-10T18:47:44.251Z,96745.37
2024-02-10T18:50:11.866Z,96738.08
2024-02-10T18:52:40.553Z,96732.39
2024-02-10T18:55:10.804Z,96730.21
2024-02-10T18:57:39.226Z,96726.64
2024-02-10T19:00:09.432Z,96725.66
2024-02-10T19:02:36.757Z,96722.34
2024-02-10T19:05:03.409Z,96732.02
2024-02-10T19:07:30.710Z,96733.59
2024-02-10T19:09:57.205Z,96733.44
2024-02-10T19:12:23.724Z,96730.23
2024-02-10T19:14:50.247Z,96728.45
2024-02-10T19:17:19.222Z,96728.64
2024-02-10T19:19:46.000Z,96728.05
2024-02-10T19:22:12.979Z,96731.48
2024-02-10T19:24:42.068Z,96734.28
2024-02-10T19:27:11.519Z,96729.94
2024-02-10T19:29:39.262Z,96733.56
2024-02-10T19:32:08.693Z,96739.73
2024-02-10T19:34:41.502Z,96738.39
2024-02-10T19:37:08.979Z,96738.10
2024-02-10T19:39:35.460Z,96735.75
2024-02-10T19:42:01.970Z,96739.29
2024-02-10T19:44:29.357Z,96741.98
2024-02-10T19:46:57.026Z,96744.92
2024-02-10T19:49:24.554Z,96745.91
2024-02-10T19:51:51.474Z,96742.67
2024-02-10T19:54:20.903Z,96745.83
2024-02-10T19:56:50.316Z,96755.37
2024-02-10T19:59:17.121Z,96756.94
2024-02-10T20:01:45.693Z,96760.63
2024-02-10T20:04:13.427Z,96761.85
2024-02-10T20:06:42.710Z,96768.08
2024-02-10T20:09:09.841Z,96762.55
2024-02-10T20:11:37.814Z,96761.64
2024-02-10T20:14:07.509Z,96762.73
2024-02-10T20:16:34.436Z,96770.18
2024-02-10T20:19:05.350Z,96773.31
2024-02-10T20:21:33.018Z,96780.14
2024-02-10T20:23:59.611Z,96778.61
2024-02-10T20:26:26.806Z,96785.34
2024-02-10T20:28:56.057Z,96791.94
2024-02-10T20:31:22.938Z,96795.90
2024-02-10T20:33:54.232Z,96799.64
2024-02-10T20:36:28.171Z,96804.70
2024-02-10T20:38:56.161Z,96801.23
2024-02-10T20:41:23.900Z,96806.20
2024-02-10T20:43:50.522Z,96805.27
2024-02-10T20:46:17.126Z,96809.34
2024-02-10T20:48:44.687Z,96809.39
2024-02-10T20:51:11.904Z,96809.30
2024-02-10T20:53:42.257Z,96804.23
2024-02-10T20:56:13.905Z,96807.48
2024-02-10T20:58:42.995Z,96811.29
2024-02-10T21:01:14.214Z,96810.92
2024-02-10T21:03:40.776Z,96812.90
2024-02-10T21:06:08.184Z,96811.65
2024-02-10T21:08:38.961Z,96805.38
2024-02-10T21:11:06.651Z,96806.75
2024-02-10T21:13:33.294Z,96801.94
2024-02-10T21:16:00.141Z,96795.98
2024-02-10T21:18:26.930Z,96793.91
2024-02-10T21:20:55.320Z,96793.91
2024-02-10T21:23:25.943Z,96787.70
2024-02-10T21:25:52.735Z,96788.44
2024-02-10T21:28:19.249Z,96791.14
2024-02-10T21:30:47.527Z,96787.42
2024-02-10T21:33:14.359Z,96784.00
2024-02-10T21:35:41.379Z,96784.52
2024-02-10T21:38:08.905Z,96786.37
2024-02-10T21:40:35.512Z,96799.59
2024-02-10T21:43:02.191Z,96801.85
2024-02-10T21:45:30.354Z,96803.19
2024-02-10T21:47:56.910Z,96808.27
2024-02-10T21:50:24.853Z,96818.73
2024-02-10T21:52:51.551Z,96821.08
2024-02-10T21:55:18.357Z,96823.04
2024-02-10T21:57:44.940Z,96826.36
2024-02-10T22:00:20.518Z,96835.20
2024-02-10T22:02:51.757Z,96830.05
2024-02-10T22:05:20.807Z,96830.48
2024-02-10T22:07:48.350Z,96831.46
2024-02-10T22:10:15.237Z,96821.98
2024-02-10T22:12:44.792Z,96816.98
2024-02-10T22:15:13.514Z,96819.22
2024-02-10T22:17:40.385Z,96814.85
2024-02-10T22:20:08.720Z,96819.38
2024-02-10T22:22:35.475Z,96823.87
2024-02-10T22:25:05.572Z,96825.08
2024-02-10T22:27:33.680Z,96827.52
2024-02-10T22:30:00.300Z,96825.86
2024-02-10T22:32:29.414Z,96831.98
2024-02-10T22:34:58.188Z,96836.33
2024-02-10T22:37:26.093Z,96850.14
2024-02-10T22:39:56.165Z,96857.34
2024-02-10T22:42:25.067Z,96856.04
2024-02-10T22:44:53.068Z,96851.10
2024-02-10T22:47:20.890Z,96855.38
2024-02-10T22:49:49.078Z,96854.98
2024-02-10T22:52:23.246Z,96858.91
2024-02-10T22:54:54.602Z,96862.36
2024-02-10T22:57:21.364Z,96870.30
2024-02-10T22:59:52.058Z,96873.23
2024-02-10T23:02:18.871Z,96884.73
2024-02-10T23:04:47.558Z,96889.80
2024-02-10T23:07:15.693Z,96899.29
2024-02-10T23:09:44.667Z,96901.20
2024-02-10T23:12:14.413Z,96909.30
2024-02-10T23:14:47.092Z,96912.98
2024-02-10T23:17:14.406Z,96912.42
2024-02-10T23:19:44.177Z,96924.45
2024-02-10T23:22:11.158Z,96931.34
2024-02-10T23:24:39.305Z,96929.30
2024-02-10T23:27:06.030Z,96929.50
2024-02-10T23:29:32.577Z,96932.56
2024-02-10T23:32:02.725Z,96934.73
2024-02-10T23:34:31.042Z,96943.54
2024-02-10T23:37:03.819Z,96944.38
2024-02-10T23:39:34.696Z,96945.34
2024-02-10T23:42:08.596Z,96949.06
2024-02-10T23:44:37.075Z,96948.81
2024-02-10T23:47:03.844Z,96949.16
2024-02-10T23:49:32.965Z,96952.88
2024-02-10T23:52:00.689Z,96954.80
2024-02-10T23:54:27.116Z,96953.95
2024-02-10T23:56:55.334Z,96958.02
2024-02-10T23:59:21.808Z,96960.30
